sensor_id;sensor_type;location;lat;lon;timestamp;P1;durP1;ratioP1;P2;durP2;ratioP2
77109;SDS011;66062;52.464;16.922;2023-04-01T00:02:06;8.52;;;6.07;;
77109;SDS011;66062;52.464;16.922;2023-04-01T00:04:31;11.57;;;5.43;;
77109;SDS011;66062;52.464;16.922;2023-04-01T00:06:57;12.63;;;6.40;;
77109;SDS011;66062;52.464;16.922;2023-04-01T00:09:22;11.57;;;6.55;;
77109;SDS011;66062;52.464;16.922;2023-04-01T00:11:48;13.70;;;5.90;;
77109;SDS011;66062;52.464;16.922;2023-04-01T00:14:13;11.35;;;6.72;;
77109;SDS011;66062;52.464;16.922;2023-04-01T00:16:39;11.93;;;6.57;;
77109;SDS011;66062;52.464;16.922;2023-04-01T00:19:04;12.50;;;6.55;;
77109;SDS011;66062;52.464;16.922;2023-04-01T00:21:30;10.98;;;6.75;;
77109;SDS011;66062;52.464;16.922;2023-04-01T00:23:55;12.38;;;6.72;;
77109;SDS011;66062;52.464;16.922;2023-04-01T00:26:21;12.43;;;6.28;;
77109;SDS011;66062;52.464;16.922;2023-04-01T00:28:47;11.98;;;6.10;;
77109;SDS011;66062;52.464;16.922;2023-04-01T00:31:13;12.88;;;6.13;;
77109;SDS011;66062;52.464;16.922;2023-04-01T00:33:39;9.65;;;5.80;;
77109;SDS011;66062;52.464;16.922;2023-04-01T00:36:07;9.02;;;5.53;;
77109;SDS011;66062;52.464;16.922;2023-04-01T00:38:36;11.93;;;5.50;;
77109;SDS011;66062;52.464;16.922;2023-04-01T00:41:03;13.93;;;5.85;;
77109;SDS011;66062;52.464;16.922;2023-04-01T00:43:28;8.50;;;4.97;;
77109;SDS011;66062;52.464;16.922;2023-04-01T00:45:54;9.05;;;5.60;;
77109;SDS011;66062;52.464;16.922;2023-04-01T00:48:20;9.98;;;5.47;;
77109;SDS011;66062;52.464;16.922;2023-04-01T00:50:51;10.63;;;6.13;;
77109;SDS011;66062;52.464;16.922;2023-04-01T00:53:20;10.55;;;5.72;;
77109;SDS011;66062;52.464;16.922;2023-04-01T00:56:09;11.60;;;5.68;;
77109;SDS011;66062;52.464;16.922;2023-04-01T00:58:38;9.32;;;5.90;;
77109;SDS011;66062;52.464;16.922;2023-04-01T01:01:07;9.82;;;6.13;;
77109;SDS011;66062;52.464;16.922;2023-04-01T01:03:34;10.73;;;6.60;;
77109;SDS011;66062;52.464;16.922;2023-04-01T01:12:17;10.35;;;6.63;;
77109;SDS011;66062;52.464;16.922;2023-04-01T01:33:29;9.20;;;6.30;;
77109;SDS011;66062;52.464;16.922;2023-04-01T01:36:04;10.95;;;6.60;;
77109;SDS011;66062;52.464;16.922;2023-04-01T01:38:36;10.95;;;6.63;;
77109;SDS011;66062;52.464;16.922;2023-04-01T01:41:03;9.05;;;5.90;;
77109;SDS011;66062;52.464;16.922;2023-04-01T01:43:31;13.20;;;7.30;;
77109;SDS011;66062;52.464;16.922;2023-04-01T01:46:02;13.00;;;6.90;;
77109;SDS011;66062;52.464;16.922;2023-04-01T01:48:34;12.68;;;6.85;;
77109;SDS011;66062;52.464;16.922;2023-04-01T01:51:00;11.10;;;6.28;;
77109;SDS011;66062;52.464;16.922;2023-04-01T01:53:27;11.38;;;6.47;;
77109;SDS011;66062;52.464;16.922;2023-04-01T01:55:53;11.27;;;6.53;;
77109;SDS011;66062;52.464;16.922;2023-04-01T01:58:22;11.88;;;6.30;;
77109;SDS011;66062;52.464;16.922;2023-04-01T02:00:53;12.98;;;7.32;;
77109;SDS011;66062;52.464;16.922;2023-04-01T02:03:22;11.75;;;7.05;;
77109;SDS011;66062;52.464;16.922;2023-04-01T02:05:50;12.93;;;7.15;;
77109;SDS011;66062;52.464;16.922;2023-04-01T02:08:21;13.32;;;6.85;;
77109;SDS011;66062;52.464;16.922;2023-04-01T02:10:59;11.68;;;6.55;;
77109;SDS011;66062;52.464;16.922;2023-04-01T02:16:27;9.90;;;5.88;;
77109;SDS011;66062;52.464;16.922;2023-04-01T02:18:57;10.02;;;6.43;;
77109;SDS011;66062;52.464;16.922;2023-04-01T02:21:24;11.30;;;6.22;;
77109;SDS011;66062;52.464;16.922;2023-04-01T02:23:54;10.77;;;6.78;;
77109;SDS011;66062;52.464;16.922;2023-04-01T02:26:23;11.23;;;6.43;;
77109;SDS011;66062;52.464;16.922;2023-04-01T02:28:51;12.35;;;7.00;;
77109;SDS011;66062;52.464;16.922;2023-04-01T02:31:19;11.45;;;7.05;;
77109;SDS011;66062;52.464;16.922;2023-04-01T02:33:46;13.48;;;6.85;;
77109;SDS011;66062;52.464;16.922;2023-04-01T02:36:13;10.93;;;7.13;;
77109;SDS011;66062;52.464;16.922;2023-04-01T02:38:39;11.30;;;7.25;;
77109;SDS011;66062;52.464;16.922;2023-04-01T02:41:06;12.75;;;7.03;;
77109;SDS011;66062;52.464;16.922;2023-04-01T02:43:32;10.13;;;6.72;;
77109;SDS011;66062;52.464;16.922;2023-04-01T02:45:58;11.25;;;7.07;;
77109;SDS011;66062;52.464;16.922;2023-04-01T02:48:23;11.27;;;7.45;;
77109;SDS011;66062;52.464;16.922;2023-04-01T02:50:49;12.73;;;7.35;;
77109;SDS011;66062;52.464;16.922;2023-04-01T02:53:15;14.43;;;6.95;;
77109;SDS011;66062;52.464;16.922;2023-04-01T02:55:41;13.25;;;7.40;;
77109;SDS011;66062;52.464;16.922;2023-04-01T02:58:07;12.55;;;6.93;;
77109;SDS011;66062;52.464;16.922;2023-04-01T03:00:32;11.60;;;6.82;;
77109;SDS011;66062;52.464;16.922;2023-04-01T03:02:58;12.10;;;6.70;;
77109;SDS011;66062;52.464;16.922;2023-04-01T03:05:24;11.52;;;7.07;;
77109;SDS011;66062;52.464;16.922;2023-04-01T03:07:49;12.52;;;7.28;;
77109;SDS011;66062;52.464;16.922;2023-04-01T03:10:15;11.48;;;7.28;;
77109;SDS011;66062;52.464;16.922;2023-04-01T03:12:40;11.52;;;7.55;;
77109;SDS011;66062;52.464;16.922;2023-04-01T03:15:06;11.93;;;6.50;;
77109;SDS011;66062;52.464;16.922;2023-04-01T03:17:32;11.68;;;6.93;;
77109;SDS011;66062;52.464;16.922;2023-04-01T03:19:57;10.52;;;6.65;;
77109;SDS011;66062;52.464;16.922;2023-04-01T03:22:23;14.35;;;6.53;;
77109;SDS011;66062;52.464;16.922;2023-04-01T03:24:50;10.98;;;6.53;;
77109;SDS011;66062;52.464;16.922;2023-04-01T03:27:15;11.73;;;7.03;;
77109;SDS011;66062;52.464;16.922;2023-04-01T03:29:41;12.18;;;6.40;;
77109;SDS011;66062;52.464;16.922;2023-04-01T03:32:06;10.32;;;6.22;;
77109;SDS011;66062;52.464;16.922;2023-04-01T03:34:32;10.95;;;6.40;;
77109;SDS011;66062;52.464;16.922;2023-04-01T03:36:57;13.63;;;6.90;;
77109;SDS011;66062;52.464;16.922;2023-04-01T03:39:23;11.60;;;6.30;;
77109;SDS011;66062;52.464;16.922;2023-04-01T03:41:50;12.27;;;7.35;;
77109;SDS011;66062;52.464;16.922;2023-04-01T03:44:15;10.23;;;6.43;;
77109;SDS011;66062;52.464;16.922;2023-04-01T03:46:41;11.32;;;6.45;;
77109;SDS011;66062;52.464;16.922;2023-04-01T03:49:07;10.43;;;6.40;;
77109;SDS011;66062;52.464;16.922;2023-04-01T03:51:45;11.60;;;6.68;;
77109;SDS011;66062;52.464;16.922;2023-04-01T03:54:11;10.75;;;6.53;;
77109;SDS011;66062;52.464;16.922;2023-04-01T03:56:37;12.18;;;7.10;;
77109;SDS011;66062;52.464;16.922;2023-04-01T03:59:04;12.25;;;7.22;;
77109;SDS011;66062;52.464;16.922;2023-04-01T04:01:30;12.32;;;6.93;;
77109;SDS011;66062;52.464;16.922;2023-04-01T04:03:56;12.80;;;8.00;;
77109;SDS011;66062;52.464;16.922;2023-04-01T04:06:22;13.57;;;7.18;;
77109;SDS011;66062;52.464;16.922;2023-04-01T04:08:48;11.05;;;7.05;;
77109;SDS011;66062;52.464;16.922;2023-04-01T04:11:14;12.02;;;7.28;;
77109;SDS011;66062;52.464;16.922;2023-04-01T04:13:41;11.65;;;7.13;;
77109;SDS011;66062;52.464;16.922;2023-04-01T04:16:06;13.52;;;7.30;;
77109;SDS011;66062;52.464;16.922;2023-04-01T04:18:33;12.93;;;7.60;;
77109;SDS011;66062;52.464;16.922;2023-04-01T04:20:59;12.77;;;8.00;;
77109;SDS011;66062;52.464;16.922;2023-04-01T04:23:24;14.07;;;8.38;;
77109;SDS011;66062;52.464;16.922;2023-04-01T04:26:09;14.27;;;8.15;;
77109;SDS011;66062;52.464;16.922;2023-04-01T04:28:37;14.73;;;8.43;;
77109;SDS011;66062;52.464;16.922;2023-04-01T04:31:02;16.63;;;9.05;;
77109;SDS011;66062;52.464;16.922;2023-04-01T04:33:30;14.10;;;8.35;;
77109;SDS011;66062;52.464;16.922;2023-04-01T04:35:56;17.20;;;8.75;;
77109;SDS011;66062;52.464;16.922;2023-04-01T04:38:23;14.68;;;9.18;;
77109;SDS011;66062;52.464;16.922;2023-04-01T04:40:48;15.30;;;8.70;;
77109;SDS011;66062;52.464;16.922;2023-04-01T04:43:15;17.55;;;10.05;;
77109;SDS011;66062;52.464;16.922;2023-04-01T04:45:41;14.65;;;8.95;;
77109;SDS011;66062;52.464;16.922;2023-04-01T04:48:07;17.23;;;10.27;;
77109;SDS011;66062;52.464;16.922;2023-04-01T04:50:43;16.63;;;9.60;;
77109;SDS011;66062;52.464;16.922;2023-04-01T04:53:09;18.55;;;10.10;;
77109;SDS011;66062;52.464;16.922;2023-04-01T04:55:36;19.65;;;10.00;;
77109;SDS011;66062;52.464;16.922;2023-04-01T04:58:01;16.40;;;10.20;;
77109;SDS011;66062;52.464;16.922;2023-04-01T05:00:27;15.77;;;9.68;;
77109;SDS011;66062;52.464;16.922;2023-04-01T05:02:52;14.80;;;9.32;;
77109;SDS011;66062;52.464;16.922;2023-04-01T05:05:17;15.52;;;9.27;;
77109;SDS011;66062;52.464;16.922;2023-04-01T05:07:43;14.45;;;9.43;;
77109;SDS011;66062;52.464;16.922;2023-04-01T05:10:08;14.25;;;8.70;;
77109;SDS011;66062;52.464;16.922;2023-04-01T05:12:34;14.05;;;8.77;;
77109;SDS011;66062;52.464;16.922;2023-04-01T05:15:05;14.13;;;8.45;;
77109;SDS011;66062;52.464;16.922;2023-04-01T05:17:31;13.70;;;8.60;;
77109;SDS011;66062;52.464;16.922;2023-04-01T05:19:57;14.85;;;8.85;;
77109;SDS011;66062;52.464;16.922;2023-04-01T05:22:23;13.48;;;8.45;;
77109;SDS011;66062;52.464;16.922;2023-04-01T05:24:49;15.07;;;9.35;;
77109;SDS011;66062;52.464;16.922;2023-04-01T05:27:14;14.55;;;8.95;;
77109;SDS011;66062;52.464;16.922;2023-04-01T05:29:40;13.90;;;8.70;;
77109;SDS011;66062;52.464;16.922;2023-04-01T05:32:05;15.82;;;8.88;;
77109;SDS011;66062;52.464;16.922;2023-04-01T05:34:31;16.17;;;8.70;;
77109;SDS011;66062;52.464;16.922;2023-04-01T05:36:56;13.25;;;8.50;;
77109;SDS011;66062;52.464;16.922;2023-04-01T05:39:22;13.05;;;8.70;;
77109;SDS011;66062;52.464;16.922;2023-04-01T05:41:48;15.48;;;8.15;;
77109;SDS011;66062;52.464;16.922;2023-04-01T05:44:14;14.13;;;8.93;;
77109;SDS011;66062;52.464;16.922;2023-04-01T05:46:39;12.55;;;7.63;;
77109;SDS011;66062;52.464;16.922;2023-04-01T05:49:05;14.07;;;8.57;;
77109;SDS011;66062;52.464;16.922;2023-04-01T05:51:30;15.63;;;8.45;;
77109;SDS011;66062;52.464;16.922;2023-04-01T05:53:55;12.75;;;7.90;;
77109;SDS011;66062;52.464;16.922;2023-04-01T05:56:21;11.52;;;7.38;;
77109;SDS011;66062;52.464;16.922;2023-04-01T05:58:47;12.73;;;8.02;;
77109;SDS011;66062;52.464;16.922;2023-04-01T06:01:16;13.88;;;8.05;;
77109;SDS011;66062;52.464;16.922;2023-04-01T06:03:43;13.68;;;8.32;;
77109;SDS011;66062;52.464;16.922;2023-04-01T06:06:16;12.55;;;8.10;;
77109;SDS011;66062;52.464;16.922;2023-04-01T06:08:48;12.70;;;7.60;;
77109;SDS011;66062;52.464;16.922;2023-04-01T06:11:29;12.27;;;6.50;;
77109;SDS011;66062;52.464;16.922;2023-04-01T06:14:05;10.35;;;5.93;;
77109;SDS011;66062;52.464;16.922;2023-04-01T06:22:35;8.25;;;4.32;;
77109;SDS011;66062;52.464;16.922;2023-04-01T06:25:09;7.90;;;5.28;;
77109;SDS011;66062;52.464;16.922;2023-04-01T06:34:26;8.77;;;4.50;;
77109;SDS011;66062;52.464;16.922;2023-04-01T06:42:40;9.88;;;5.38;;
77109;SDS011;66062;52.464;16.922;2023-04-01T06:48:13;8.25;;;4.90;;
77109;SDS011;66062;52.464;16.922;2023-04-01T06:56:46;9.63;;;6.60;;
77109;SDS011;66062;52.464;16.922;2023-04-01T06:59:22;10.50;;;6.57;;
77109;SDS011;66062;52.464;16.922;2023-04-01T07:01:55;10.27;;;7.18;;
77109;SDS011;66062;52.464;16.922;2023-04-01T07:04:33;14.02;;;7.75;;
77109;SDS011;66062;52.464;16.922;2023-04-01T07:07:03;10.55;;;7.15;;
77109;SDS011;66062;52.464;16.922;2023-04-01T07:09:41;10.52;;;6.68;;
77109;SDS011;66062;52.464;16.922;2023-04-01T07:14:45;8.77;;;5.38;;
77109;SDS011;66062;52.464;16.922;2023-04-01T07:17:25;8.88;;;5.53;;
77109;SDS011;66062;52.464;16.922;2023-04-01T07:22:43;22.08;;;13.05;;
77109;SDS011;66062;52.464;16.922;2023-04-01T07:27:41;9.43;;;5.22;;
77109;SDS011;66062;52.464;16.922;2023-04-01T07:30:16;10.60;;;5.03;;
77109;SDS011;66062;52.464;16.922;2023-04-01T07:32:51;7.75;;;5.05;;
77109;SDS011;66062;52.464;16.922;2023-04-01T07:35:30;8.80;;;5.22;;
77109;SDS011;66062;52.464;16.922;2023-04-01T07:38:07;8.65;;;5.43;;
77109;SDS011;66062;52.464;16.922;2023-04-01T07:40:57;7.32;;;4.72;;
77109;SDS011;66062;52.464;16.922;2023-04-01T07:46:41;8.40;;;4.10;;
77109;SDS011;66062;52.464;16.922;2023-04-01T07:49:22;7.88;;;4.13;;
77109;SDS011;66062;52.464;16.922;2023-04-01T07:56:58;7.22;;;4.72;;
77109;SDS011;66062;52.464;16.922;2023-04-01T08:10:19;31.13;;;15.70;;
77109;SDS011;66062;52.464;16.922;2023-04-01T08:15:49;8.98;;;5.38;;
77109;SDS011;66062;52.464;16.922;2023-04-01T08:18:39;10.65;;;5.15;;
77109;SDS011;66062;52.464;16.922;2023-04-01T08:21:22;9.60;;;5.63;;
77109;SDS011;66062;52.464;16.922;2023-04-01T08:23:55;10.23;;;5.22;;
77109;SDS011;66062;52.464;16.922;2023-04-01T08:26:35;13.18;;;6.55;;
77109;SDS011;66062;52.464;16.922;2023-04-01T08:29:13;11.88;;;6.53;;
77109;SDS011;66062;52.464;16.922;2023-04-01T08:31:46;11.85;;;6.75;;
77109;SDS011;66062;52.464;16.922;2023-04-01T08:34:15;9.90;;;5.72;;
77109;SDS011;66062;52.464;16.922;2023-04-01T08:36:50;12.27;;;6.80;;
77109;SDS011;66062;52.464;16.922;2023-04-01T08:39:25;11.52;;;6.45;;
77109;SDS011;66062;52.464;16.922;2023-04-01T08:42:00;14.93;;;7.25;;
77109;SDS011;66062;52.464;16.922;2023-04-01T08:52:37;15.45;;;8.15;;
77109;SDS011;66062;52.464;16.922;2023-04-01T08:55:15;14.05;;;8.85;;
77109;SDS011;66062;52.464;16.922;2023-04-01T09:00:48;17.30;;;9.32;;
77109;SDS011;66062;52.464;16.922;2023-04-01T09:12:07;15.70;;;10.02;;
77109;SDS011;66062;52.464;16.922;2023-04-01T09:15:27;18.42;;;9.75;;
77109;SDS011;66062;52.464;16.922;2023-04-01T09:17:49;17.38;;;9.35;;
77109;SDS011;66062;52.464;16.922;2023-04-01T09:34:17;15.57;;;9.43;;
77109;SDS011;66062;52.464;16.922;2023-04-01T09:36:51;20.50;;;10.38;;
77109;SDS011;66062;52.464;16.922;2023-04-01T09:42:06;30.05;;;12.40;;
77109;SDS011;66062;52.464;16.922;2023-04-01T09:50:13;21.42;;;11.30;;
77109;SDS011;66062;52.464;16.922;2023-04-01T10:07:28;30.27;;;12.95;;
77109;SDS011;66062;52.464;16.922;2023-04-01T10:29:48;37.85;;;17.70;;
77109;SDS011;66062;52.464;16.922;2023-04-01T10:32:28;31.45;;;15.48;;
77109;SDS011;66062;52.464;16.922;2023-04-01T10:54:43;31.55;;;16.05;;
77109;SDS011;66062;52.464;16.922;2023-04-01T11:06:24;22.85;;;13.30;;
77109;SDS011;66062;52.464;16.922;2023-04-01T11:17:25;20.67;;;10.85;;
77109;SDS011;66062;52.464;16.922;2023-04-01T11:28:24;20.27;;;10.85;;
77109;SDS011;66062;52.464;16.922;2023-04-01T11:33:58;24.02;;;12.35;;
77109;SDS011;66062;52.464;16.922;2023-04-01T11:36:40;22.10;;;13.25;;
77109;SDS011;66062;52.464;16.922;2023-04-01T11:41:56;21.58;;;11.82;;
77109;SDS011;66062;52.464;16.922;2023-04-01T11:44:43;22.85;;;12.45;;
77109;SDS011;66062;52.464;16.922;2023-04-01T11:49:55;21.77;;;11.75;;
77109;SDS011;66062;52.464;16.922;2023-04-01T12:00:35;18.60;;;10.93;;
77109;SDS011;66062;52.464;16.922;2023-04-01T12:19:48;16.58;;;10.70;;
77109;SDS011;66062;52.464;16.922;2023-04-01T12:41:17;13.80;;;7.63;;
77109;SDS011;66062;52.464;16.922;2023-04-01T12:51:50;13.98;;;8.38;;
77109;SDS011;66062;52.464;16.922;2023-04-01T13:11:37;9.93;;;7.15;;
77109;SDS011;66062;52.464;16.922;2023-04-01T13:19:30;9.30;;;6.85;;
77109;SDS011;66062;52.464;16.922;2023-04-01T13:22:07;7.65;;;6.00;;
77109;SDS011;66062;52.464;16.922;2023-04-01T13:24:56;8.10;;;5.95;;
77109;SDS011;66062;52.464;16.922;2023-04-01T13:27:44;6.88;;;5.20;;
77109;SDS011;66062;52.464;16.922;2023-04-01T13:35:17;6.63;;;5.40;;
77109;SDS011;66062;52.464;16.922;2023-04-01T13:40:45;8.02;;;5.70;;
77109;SDS011;66062;52.464;16.922;2023-04-01T13:43:36;7.82;;;5.95;;
77109;SDS011;66062;52.464;16.922;2023-04-01T13:48:54;8.57;;;5.82;;
77109;SDS011;66062;52.464;16.922;2023-04-01T14:00:12;11.57;;;5.60;;
77109;SDS011;66062;52.464;16.922;2023-04-01T14:32:51;9.90;;;7.63;;
77109;SDS011;66062;52.464;16.922;2023-04-01T14:38:42;9.20;;;7.30;;
77109;SDS011;66062;52.464;16.922;2023-04-01T14:52:14;8.60;;;6.55;;
77109;SDS011;66062;52.464;16.922;2023-04-01T14:54:47;9.48;;;7.20;;
77109;SDS011;66062;52.464;16.922;2023-04-01T14:57:27;7.72;;;6.03;;
77109;SDS011;66062;52.464;16.922;2023-04-01T15:00:09;7.20;;;6.00;;
77109;SDS011;66062;52.464;16.922;2023-04-01T15:02:51;9.20;;;6.43;;
77109;SDS011;66062;52.464;16.922;2023-04-01T15:14:13;7.85;;;6.53;;
77109;SDS011;66062;52.464;16.922;2023-04-01T15:22:37;8.63;;;6.57;;
77109;SDS011;66062;52.464;16.922;2023-04-01T15:27:58;7.93;;;5.97;;
77109;SDS011;66062;52.464;16.922;2023-04-01T15:33:20;9.48;;;5.47;;
77109;SDS011;66062;52.464;16.922;2023-04-01T15:36:03;8.43;;;5.47;;
77109;SDS011;66062;52.464;16.922;2023-04-01T15:38:45;8.68;;;5.45;;
77109;SDS011;66062;52.464;16.922;2023-04-01T15:41:27;8.43;;;5.78;;
77109;SDS011;66062;52.464;16.922;2023-04-01T15:44:26;7.35;;;5.80;;
77109;SDS011;66062;52.464;16.922;2023-04-01T15:47:07;7.68;;;6.53;;
77109;SDS011;66062;52.464;16.922;2023-04-01T15:58:38;7.03;;;5.75;;
77109;SDS011;66062;52.464;16.922;2023-04-01T16:06:27;8.07;;;5.47;;
77109;SDS011;66062;52.464;16.922;2023-04-01T16:09:22;8.77;;;5.63;;
77109;SDS011;66062;52.464;16.922;2023-04-01T16:21:02;8.07;;;6.28;;
77109;SDS011;66062;52.464;16.922;2023-04-01T16:23:37;9.98;;;7.13;;
77109;SDS011;66062;52.464;16.922;2023-04-01T16:31:29;9.23;;;6.95;;
77109;SDS011;66062;52.464;16.922;2023-04-01T16:45:31;9.48;;;6.90;;
77109;SDS011;66062;52.464;16.922;2023-04-01T16:48:21;9.80;;;6.38;;
77109;SDS011;66062;52.464;16.922;2023-04-01T16:50:55;8.82;;;7.18;;
77109;SDS011;66062;52.464;16.922;2023-04-01T16:53:30;10.35;;;7.15;;
77109;SDS011;66062;52.464;16.922;2023-04-01T17:01:26;10.68;;;6.97;;
77109;SDS011;66062;52.464;16.922;2023-04-01T17:03:58;12.13;;;6.75;;
77109;SDS011;66062;52.464;16.922;2023-04-01T17:06:33;11.05;;;9.38;;
77109;SDS011;66062;52.464;16.922;2023-04-01T17:09:33;10.98;;;8.30;;
77109;SDS011;66062;52.464;16.922;2023-04-01T17:12:02;9.43;;;7.15;;
77109;SDS011;66062;52.464;16.922;2023-04-01T17:14:45;11.98;;;8.15;;
77109;SDS011;66062;52.464;16.922;2023-04-01T17:31:02;16.63;;;10.48;;
77109;SDS011;66062;52.464;16.922;2023-04-01T17:38:48;12.65;;;7.47;;
77109;SDS011;66062;52.464;16.922;2023-04-01T17:41:48;12.27;;;8.75;;
77109;SDS011;66062;52.464;16.922;2023-04-01T17:44:36;39.22;;;21.48;;
77109;SDS011;66062;52.464;16.922;2023-04-01T17:50:05;10.00;;;7.20;;
77109;SDS011;66062;52.464;16.922;2023-04-01T17:52:44;13.85;;;7.72;;
77109;SDS011;66062;52.464;16.922;2023-04-01T17:55:37;11.60;;;7.15;;
77109;SDS011;66062;52.464;16.922;2023-04-01T18:01:15;8.50;;;6.60;;
77109;SDS011;66062;52.464;16.922;2023-04-01T18:20:54;10.35;;;6.78;;
77109;SDS011;66062;52.464;16.922;2023-04-01T18:23:43;6.85;;;4.65;;
77109;SDS011;66062;52.464;16.922;2023-04-01T18:26:22;11.38;;;7.03;;
77109;SDS011;66062;52.464;16.922;2023-04-01T18:28:56;8.60;;;6.63;;
77109;SDS011;66062;52.464;16.922;2023-04-01T18:36:46;10.45;;;5.45;;
77109;SDS011;66062;52.464;16.922;2023-04-01T18:39:23;8.65;;;6.28;;
77109;SDS011;66062;52.464;16.922;2023-04-01T18:45:14;9.32;;;6.03;;
77109;SDS011;66062;52.464;16.922;2023-04-01T18:47:44;12.00;;;5.80;;
77109;SDS011;66062;52.464;16.922;2023-04-01T18:52:50;9.63;;;6.70;;
77109;SDS011;66062;52.464;16.922;2023-04-01T18:55:46;9.45;;;6.22;;
77109;SDS011;66062;52.464;16.922;2023-04-01T18:58:37;10.70;;;6.05;;
77109;SDS011;66062;52.464;16.922;2023-04-01T19:06:20;8.85;;;6.20;;
77109;SDS011;66062;52.464;16.922;2023-04-01T19:08:51;8.60;;;6.30;;
77109;SDS011;66062;52.464;16.922;2023-04-01T19:16:28;6.25;;;5.22;;
77109;SDS011;66062;52.464;16.922;2023-04-01T19:27:41;7.72;;;5.03;;
77109;SDS011;66062;52.464;16.922;2023-04-01T19:30:21;7.95;;;5.32;;
77109;SDS011;66062;52.464;16.922;2023-04-01T19:33:07;6.82;;;5.28;;
77109;SDS011;66062;52.464;16.922;2023-04-01T19:38:37;9.63;;;5.50;;
77109;SDS011;66062;52.464;16.922;2023-04-01T19:41:09;8.50;;;4.82;;
77109;SDS011;66062;52.464;16.922;2023-04-01T19:43:52;8.05;;;5.75;;
77109;SDS011;66062;52.464;16.922;2023-04-01T19:57:00;7.68;;;5.82;;
77109;SDS011;66062;52.464;16.922;2023-04-01T19:59:57;7.95;;;5.35;;
77109;SDS011;66062;52.464;16.922;2023-04-01T20:02:38;7.32;;;5.22;;
77109;SDS011;66062;52.464;16.922;2023-04-01T20:05:41;10.40;;;6.60;;
77109;SDS011;66062;52.464;16.922;2023-04-01T20:11:19;9.68;;;6.65;;
77109;SDS011;66062;52.464;16.922;2023-04-01T20:16:50;7.15;;;5.18;;
77109;SDS011;66062;52.464;16.922;2023-04-01T20:19:34;10.05;;;6.45;;
77109;SDS011;66062;52.464;16.922;2023-04-01T20:24:50;9.93;;;5.78;;
77109;SDS011;66062;52.464;16.922;2023-04-01T20:27:21;7.65;;;5.45;;
77109;SDS011;66062;52.464;16.922;2023-04-01T20:29:56;8.52;;;5.40;;
77109;SDS011;66062;52.464;16.922;2023-04-01T20:32:50;7.47;;;5.70;;
77109;SDS011;66062;52.464;16.922;2023-04-01T20:45:08;7.38;;;5.00;;
77109;SDS011;66062;52.464;16.922;2023-04-01T20:50:52;7.05;;;3.42;;
77109;SDS011;66062;52.464;16.922;2023-04-01T21:18:10;9.98;;;6.47;;
77109;SDS011;66062;52.464;16.922;2023-04-01T21:23:53;10.15;;;6.25;;
77109;SDS011;66062;52.464;16.922;2023-04-01T22:05:33;11.48;;;7.30;;
77109;SDS011;66062;52.464;16.922;2023-04-01T22:13:31;11.23;;;6.85;;
77109;SDS011;66062;52.464;16.922;2023-04-01T22:16:23;14.23;;;7.43;;
77109;SDS011;66062;52.464;16.922;2023-04-01T22:30:26;11.95;;;6.80;;
77109;SDS011;66062;52.464;16.922;2023-04-01T22:38:03;9.60;;;5.85;;
77109;SDS011;66062;52.464;16.922;2023-04-01T22:46:03;11.48;;;6.05;;
77109;SDS011;66062;52.464;16.922;2023-04-01T22:48:41;9.43;;;5.93;;
77109;SDS011;66062;52.464;16.922;2023-04-01T22:51:21;11.32;;;5.68;;
77109;SDS011;66062;52.464;16.922;2023-04-01T22:56:47;9.45;;;5.50;;
77109;SDS011;66062;52.464;16.922;2023-04-01T22:59:19;8.15;;;5.60;;
77109;SDS011;66062;52.464;16.922;2023-04-01T23:02:10;8.93;;;5.20;;
77109;SDS011;66062;52.464;16.922;2023-04-01T23:04:39;11.43;;;6.05;;
77109;SDS011;66062;52.464;16.922;2023-04-01T23:10:49;9.13;;;5.45;;
77109;SDS011;66062;52.464;16.922;2023-04-01T23:13:15;8.75;;;5.93;;
77109;SDS011;66062;52.464;16.922;2023-04-01T23:15:45;13.63;;;6.18;;
77109;SDS011;66062;52.464;16.922;2023-04-01T23:18:18;11.60;;;6.13;;
77109;SDS011;66062;52.464;16.922;2023-04-01T23:23:39;12.10;;;5.72;;
77109;SDS011;66062;52.464;16.922;2023-04-01T23:28:54;8.05;;;5.85;;
77109;SDS011;66062;52.464;16.922;2023-04-01T23:33:54;10.40;;;5.32;;
77109;SDS011;66062;52.464;16.922;2023-04-01T23:36:21;8.05;;;4.95;;
77109;SDS011;66062;52.464;16.922;2023-04-01T23:38:47;9.50;;;5.38;;
77109;SDS011;66062;52.464;16.922;2023-04-01T23:41:19;8.25;;;4.82;;
77109;SDS011;66062;52.464;16.922;2023-04-01T23:43:56;12.80;;;5.55;;
77109;SDS011;66062;52.464;16.922;2023-04-01T23:46:26;9.00;;;5.18;;
77109;SDS011;66062;52.464;16.922;2023-04-01T23:48:54;8.23;;;5.32;;
77109;SDS011;66062;52.464;16.922;2023-04-01T23:51:26;9.20;;;5.00;;
77109;SDS011;66062;52.464;16.922;2023-04-01T23:54:04;8.60;;;4.85;;
77109;SDS011;66062;52.464;16.922;2023-04-01T23:56:39;10.18;;;4.85;;
77109;SDS011;66062;52.464;16.922;2023-04-01T23:59:50;11.55;;;4.88;;
